sensor_id;sensor_type;location;lat;lon;timestamp;P1;durP1;ratioP1;P2;durP2;ratioP2
64351;SDS011;50680;52.626;-8.668;2023-03-01T00:01:15;12.80;;;9.60;;
64351;SDS011;50680;52.626;-8.668;2023-03-01T00:03:46;12.30;;;9.30;;
64351;SDS011;50680;52.626;-8.668;2023-03-01T00:06:13;12.13;;;8.80;;
64351;SDS011;50680;52.626;-8.668;2023-03-01T00:08:41;11.65;;;9.07;;
64351;SDS011;50680;52.626;-8.668;2023-03-01T00:11:10;11.35;;;8.77;;
64351;SDS011;50680;52.626;-8.668;2023-03-01T00:13:40;10.82;;;8.18;;
64351;SDS011;50680;52.626;-8.668;2023-03-01T00:16:09;10.10;;;9.02;;
64351;SDS011;50680;52.626;-8.668;2023-03-01T00:18:39;12.07;;;8.75;;
64351;SDS011;50680;52.626;-8.668;2023-03-01T00:21:06;11.32;;;8.77;;
64351;SDS011;50680;52.626;-8.668;2023-03-01T00:23:33;13.63;;;9.35;;
64351;SDS011;50680;52.626;-8.668;2023-03-01T00:26:01;16.88;;;10.23;;
64351;SDS011;50680;52.626;-8.668;2023-03-01T00:28:28;11.68;;;8.95;;
64351;SDS011;50680;52.626;-8.668;2023-03-01T00:30:55;12.02;;;8.85;;
64351;SDS011;50680;52.626;-8.668;2023-03-01T00:33:21;15.20;;;10.32;;
64351;SDS011;50680;52.626;-8.668;2023-03-01T00:35:48;11.23;;;8.60;;
64351;SDS011;50680;52.626;-8.668;2023-03-01T00:38:15;12.48;;;9.77;;
64351;SDS011;50680;52.626;-8.668;2023-03-01T00:40:42;14.60;;;9.80;;
64351;SDS011;50680;52.626;-8.668;2023-03-01T00:43:09;12.48;;;9.57;;
64351;SDS011;50680;52.626;-8.668;2023-03-01T00:45:36;12.13;;;10.18;;
64351;SDS011;50680;52.626;-8.668;2023-03-01T00:48:03;14.00;;;9.68;;
64351;SDS011;50680;52.626;-8.668;2023-03-01T00:50:31;12.90;;;8.88;;
64351;SDS011;50680;52.626;-8.668;2023-03-01T00:52:58;10.65;;;8.65;;
64351;SDS011;50680;52.626;-8.668;2023-03-01T00:55:25;11.18;;;8.45;;
64351;SDS011;50680;52.626;-8.668;2023-03-01T00:57:52;11.73;;;8.88;;
64351;SDS011;50680;52.626;-8.668;2023-03-01T01:00:19;10.75;;;9.48;;
64351;SDS011;50680;52.626;-8.668;2023-03-01T01:02:46;12.50;;;8.98;;
64351;SDS011;50680;52.626;-8.668;2023-03-01T01:05:14;10.98;;;8.73;;
64351;SDS011;50680;52.626;-8.668;2023-03-01T01:07:41;10.50;;;9.35;;
64351;SDS011;50680;52.626;-8.668;2023-03-01T01:10:08;10.25;;;8.63;;
64351;SDS011;50680;52.626;-8.668;2023-03-01T01:12:39;10.27;;;8.68;;
64351;SDS011;50680;52.626;-8.668;2023-03-01T01:15:06;10.43;;;8.63;;
64351;SDS011;50680;52.626;-8.668;2023-03-01T01:17:33;10.30;;;8.32;;
64351;SDS011;50680;52.626;-8.668;2023-03-01T01:20:00;12.95;;;8.63;;
64351;SDS011;50680;52.626;-8.668;2023-03-01T01:22:26;11.27;;;8.52;;
64351;SDS011;50680;52.626;-8.668;2023-03-01T01:24:53;11.73;;;8.77;;
64351;SDS011;50680;52.626;-8.668;2023-03-01T01:27:20;12.02;;;9.23;;
64351;SDS011;50680;52.626;-8.668;2023-03-01T01:29:47;9.25;;;7.80;;
64351;SDS011;50680;52.626;-8.668;2023-03-01T01:32:14;9.88;;;8.52;;
64351;SDS011;50680;52.626;-8.668;2023-03-01T01:34:41;9.07;;;8.13;;
64351;SDS011;50680;52.626;-8.668;2023-03-01T01:37:07;9.27;;;8.25;;
64351;SDS011;50680;52.626;-8.668;2023-03-01T01:39:34;9.52;;;7.88;;
64351;SDS011;50680;52.626;-8.668;2023-03-01T01:42:01;11.10;;;8.30;;
64351;SDS011;50680;52.626;-8.668;2023-03-01T01:44:29;9.55;;;7.22;;
64351;SDS011;50680;52.626;-8.668;2023-03-01T01:47:06;10.30;;;7.80;;
64351;SDS011;50680;52.626;-8.668;2023-03-01T01:49:42;8.63;;;7.72;;
64351;SDS011;50680;52.626;-8.668;2023-03-01T01:52:20;9.48;;;7.47;;
64351;SDS011;50680;52.626;-8.668;2023-03-01T01:54:54;8.88;;;8.07;;
64351;SDS011;50680;52.626;-8.668;2023-03-01T01:57:40;9.50;;;7.88;;
64351;SDS011;50680;52.626;-8.668;2023-03-01T02:00:11;8.07;;;6.80;;
64351;SDS011;50680;52.626;-8.668;2023-03-01T02:02:40;7.80;;;7.10;;
64351;SDS011;50680;52.626;-8.668;2023-03-01T02:05:11;11.25;;;7.78;;
64351;SDS011;50680;52.626;-8.668;2023-03-01T02:07:44;7.85;;;7.15;;
64351;SDS011;50680;52.626;-8.668;2023-03-01T02:10:12;8.18;;;7.22;;
64351;SDS011;50680;52.626;-8.668;2023-03-01T02:12:39;7.47;;;6.70;;
64351;SDS011;50680;52.626;-8.668;2023-03-01T02:15:06;7.88;;;7.03;;
64351;SDS011;50680;52.626;-8.668;2023-03-01T02:17:33;8.10;;;7.30;;
64351;SDS011;50680;52.626;-8.668;2023-03-01T02:22:56;8.45;;;7.30;;
64351;SDS011;50680;52.626;-8.668;2023-03-01T02:25:27;8.43;;;7.43;;
64351;SDS011;50680;52.626;-8.668;2023-03-01T02:30:40;8.75;;;7.15;;
64351;SDS011;50680;52.626;-8.668;2023-03-01T02:33:29;8.98;;;7.40;;
64351;SDS011;50680;52.626;-8.668;2023-03-01T02:36:06;9.52;;;7.72;;
64351;SDS011;50680;52.626;-8.668;2023-03-01T02:38:37;9.20;;;8.18;;
64351;SDS011;50680;52.626;-8.668;2023-03-01T02:41:04;9.80;;;7.43;;
64351;SDS011;50680;52.626;-8.668;2023-03-01T02:43:33;7.95;;;6.68;;
64351;SDS011;50680;52.626;-8.668;2023-03-01T02:46:07;10.57;;;7.68;;
64351;SDS011;50680;52.626;-8.668;2023-03-01T02:48:45;13.25;;;7.63;;
64351;SDS011;50680;52.626;-8.668;2023-03-01T02:56:53;8.02;;;6.65;;
64351;SDS011;50680;52.626;-8.668;2023-03-01T02:59:22;9.90;;;6.97;;
64351;SDS011;50680;52.626;-8.668;2023-03-01T03:04:19;7.90;;;7.10;;
64351;SDS011;50680;52.626;-8.668;2023-03-01T03:06:48;8.60;;;6.95;;
64351;SDS011;50680;52.626;-8.668;2023-03-01T03:09:16;9.52;;;7.50;;
64351;SDS011;50680;52.626;-8.668;2023-03-01T03:11:44;12.40;;;7.72;;
64351;SDS011;50680;52.626;-8.668;2023-03-01T03:14:13;8.95;;;8.00;;
64351;SDS011;50680;52.626;-8.668;2023-03-01T03:16:42;8.40;;;7.60;;
64351;SDS011;50680;52.626;-8.668;2023-03-01T03:19:11;7.82;;;7.00;;
64351;SDS011;50680;52.626;-8.668;2023-03-01T03:21:39;11.30;;;6.80;;
64351;SDS011;50680;52.626;-8.668;2023-03-01T03:24:06;11.25;;;6.63;;
64351;SDS011;50680;52.626;-8.668;2023-03-01T03:26:32;7.97;;;7.18;;
64351;SDS011;50680;52.626;-8.668;2023-03-01T03:28:59;8.20;;;7.38;;
64351;SDS011;50680;52.626;-8.668;2023-03-01T03:31:26;8.70;;;7.45;;
64351;SDS011;50680;52.626;-8.668;2023-03-01T03:33:53;8.70;;;7.70;;
64351;SDS011;50680;52.626;-8.668;2023-03-01T03:36:21;7.85;;;7.15;;
64351;SDS011;50680;52.626;-8.668;2023-03-01T03:38:50;10.63;;;7.80;;
64351;SDS011;50680;52.626;-8.668;2023-03-01T03:41:17;10.07;;;7.40;;
64351;SDS011;50680;52.626;-8.668;2023-03-01T03:43:44;9.10;;;7.90;;
64351;SDS011;50680;52.626;-8.668;2023-03-01T03:46:11;9.18;;;7.32;;
64351;SDS011;50680;52.626;-8.668;2023-03-01T03:48:43;8.40;;;7.20;;
64351;SDS011;50680;52.626;-8.668;2023-03-01T03:51:13;9.55;;;7.43;;
64351;SDS011;50680;52.626;-8.668;2023-03-01T03:53:42;9.10;;;7.97;;
64351;SDS011;50680;52.626;-8.668;2023-03-01T03:56:09;10.57;;;7.75;;
64351;SDS011;50680;52.626;-8.668;2023-03-01T03:58:36;9.48;;;8.02;;
64351;SDS011;50680;52.626;-8.668;2023-03-01T04:01:03;9.60;;;6.78;;
64351;SDS011;50680;52.626;-8.668;2023-03-01T04:03:31;11.30;;;7.80;;
64351;SDS011;50680;52.626;-8.668;2023-03-01T04:05:59;8.70;;;7.80;;
64351;SDS011;50680;52.626;-8.668;2023-03-01T04:08:27;8.63;;;6.82;;
64351;SDS011;50680;52.626;-8.668;2023-03-01T04:10:58;10.93;;;7.68;;
64351;SDS011;50680;52.626;-8.668;2023-03-01T04:13:47;8.05;;;7.07;;
64351;SDS011;50680;52.626;-8.668;2023-03-01T04:16:14;10.40;;;8.23;;
64351;SDS011;50680;52.626;-8.668;2023-03-01T04:18:41;8.88;;;7.70;;
64351;SDS011;50680;52.626;-8.668;2023-03-01T04:21:08;9.30;;;8.32;;
64351;SDS011;50680;52.626;-8.668;2023-03-01T04:23:35;11.02;;;7.95;;
64351;SDS011;50680;52.626;-8.668;2023-03-01T04:26:02;10.10;;;7.80;;
64351;SDS011;50680;52.626;-8.668;2023-03-01T04:28:30;7.88;;;7.00;;
64351;SDS011;50680;52.626;-8.668;2023-03-01T04:31:04;11.32;;;8.73;;
64351;SDS011;50680;52.626;-8.668;2023-03-01T04:33:40;9.40;;;8.05;;
64351;SDS011;50680;52.626;-8.668;2023-03-01T04:36:12;11.77;;;8.50;;
64351;SDS011;50680;52.626;-8.668;2023-03-01T04:38:41;10.63;;;8.20;;
64351;SDS011;50680;52.626;-8.668;2023-03-01T04:41:10;15.35;;;7.70;;
64351;SDS011;50680;52.626;-8.668;2023-03-01T04:43:37;9.20;;;8.18;;
64351;SDS011;50680;52.626;-8.668;2023-03-01T04:46:06;8.63;;;7.75;;
64351;SDS011;50680;52.626;-8.668;2023-03-01T04:48:36;12.10;;;8.57;;
64351;SDS011;50680;52.626;-8.668;2023-03-01T04:51:04;9.93;;;7.97;;
64351;SDS011;50680;52.626;-8.668;2023-03-01T04:53:32;9.00;;;7.55;;
64351;SDS011;50680;52.626;-8.668;2023-03-01T04:56:00;10.85;;;7.88;;
64351;SDS011;50680;52.626;-8.668;2023-03-01T04:58:27;9.77;;;8.45;;
64351;SDS011;50680;52.626;-8.668;2023-03-01T05:00:54;9.70;;;8.25;;
64351;SDS011;50680;52.626;-8.668;2023-03-01T05:03:22;10.35;;;8.07;;
64351;SDS011;50680;52.626;-8.668;2023-03-01T05:05:50;10.95;;;8.38;;
64351;SDS011;50680;52.626;-8.668;2023-03-01T05:08:18;9.70;;;8.48;;
64351;SDS011;50680;52.626;-8.668;2023-03-01T05:10:50;8.93;;;7.82;;
64351;SDS011;50680;52.626;-8.668;2023-03-01T05:13:19;11.38;;;9.15;;
64351;SDS011;50680;52.626;-8.668;2023-03-01T05:15:54;10.73;;;8.00;;
64351;SDS011;50680;52.626;-8.668;2023-03-01T05:18:22;11.88;;;8.85;;
64351;SDS011;50680;52.626;-8.668;2023-03-01T05:20:52;13.35;;;9.35;;
64351;SDS011;50680;52.626;-8.668;2023-03-01T05:23:22;10.68;;;8.10;;
64351;SDS011;50680;52.626;-8.668;2023-03-01T05:25:49;12.07;;;8.20;;
64351;SDS011;50680;52.626;-8.668;2023-03-01T05:28:19;9.90;;;8.45;;
64351;SDS011;50680;52.626;-8.668;2023-03-01T05:30:46;14.15;;;8.63;;
64351;SDS011;50680;52.626;-8.668;2023-03-01T05:33:13;10.75;;;8.27;;
64351;SDS011;50680;52.626;-8.668;2023-03-01T05:35:41;11.20;;;8.18;;
64351;SDS011;50680;52.626;-8.668;2023-03-01T05:38:09;11.35;;;8.30;;
64351;SDS011;50680;52.626;-8.668;2023-03-01T05:40:41;10.57;;;8.00;;
64351;SDS011;50680;52.626;-8.668;2023-03-01T05:43:10;11.05;;;8.68;;
64351;SDS011;50680;52.626;-8.668;2023-03-01T05:45:37;10.93;;;8.35;;
64351;SDS011;50680;52.626;-8.668;2023-03-01T05:48:05;11.80;;;8.95;;
64351;SDS011;50680;52.626;-8.668;2023-03-01T05:50:34;14.07;;;9.73;;
64351;SDS011;50680;52.626;-8.668;2023-03-01T05:55:34;11.27;;;9.43;;
64351;SDS011;50680;52.626;-8.668;2023-03-01T05:58:04;11.75;;;9.13;;
64351;SDS011;50680;52.626;-8.668;2023-03-01T06:00:32;12.82;;;8.73;;
64351;SDS011;50680;52.626;-8.668;2023-03-01T06:03:00;11.27;;;9.00;;
64351;SDS011;50680;52.626;-8.668;2023-03-01T06:05:27;14.30;;;9.35;;
64351;SDS011;50680;52.626;-8.668;2023-03-01T06:07:55;10.38;;;8.35;;
64351;SDS011;50680;52.626;-8.668;2023-03-01T06:10:25;11.10;;;8.75;;
64351;SDS011;50680;52.626;-8.668;2023-03-01T06:12:51;11.90;;;8.52;;
64351;SDS011;50680;52.626;-8.668;2023-03-01T06:15:18;10.15;;;8.60;;
64351;SDS011;50680;52.626;-8.668;2023-03-01T06:17:45;12.15;;;8.98;;
64351;SDS011;50680;52.626;-8.668;2023-03-01T06:20:17;11.65;;;8.63;;
64351;SDS011;50680;52.626;-8.668;2023-03-01T06:22:49;10.27;;;8.55;;
64351;SDS011;50680;52.626;-8.668;2023-03-01T06:25:18;13.77;;;9.48;;
64351;SDS011;50680;52.626;-8.668;2023-03-01T06:27:47;17.42;;;10.25;;
64351;SDS011;50680;52.626;-8.668;2023-03-01T06:30:15;10.82;;;8.57;;
64351;SDS011;50680;52.626;-8.668;2023-03-01T06:32:44;10.60;;;8.88;;
64351;SDS011;50680;52.626;-8.668;2023-03-01T06:35:11;10.05;;;8.38;;
64351;SDS011;50680;52.626;-8.668;2023-03-01T06:37:41;17.42;;;9.40;;
64351;SDS011;50680;52.626;-8.668;2023-03-01T06:40:08;11.65;;;8.38;;
64351;SDS011;50680;52.626;-8.668;2023-03-01T06:42:38;10.82;;;8.70;;
64351;SDS011;50680;52.626;-8.668;2023-03-01T06:45:08;11.02;;;8.98;;
64351;SDS011;50680;52.626;-8.668;2023-03-01T06:47:35;14.40;;;8.48;;
64351;SDS011;50680;52.626;-8.668;2023-03-01T06:50:02;9.93;;;7.95;;
64351;SDS011;50680;52.626;-8.668;2023-03-01T06:52:29;10.13;;;8.82;;
64351;SDS011;50680;52.626;-8.668;2023-03-01T06:54:56;9.55;;;7.88;;
64351;SDS011;50680;52.626;-8.668;2023-03-01T06:57:23;9.68;;;7.82;;
64351;SDS011;50680;52.626;-8.668;2023-03-01T06:59:50;16.83;;;8.45;;
64351;SDS011;50680;52.626;-8.668;2023-03-01T07:02:17;8.95;;;7.97;;
64351;SDS011;50680;52.626;-8.668;2023-03-01T07:04:44;9.85;;;8.48;;
64351;SDS011;50680;52.626;-8.668;2023-03-01T07:07:11;8.90;;;8.00;;
64351;SDS011;50680;52.626;-8.668;2023-03-01T07:09:38;11.07;;;8.45;;
64351;SDS011;50680;52.626;-8.668;2023-03-01T07:12:05;13.88;;;8.43;;
64351;SDS011;50680;52.626;-8.668;2023-03-01T07:14:32;9.90;;;7.88;;
64351;SDS011;50680;52.626;-8.668;2023-03-01T07:16:59;8.27;;;7.32;;
64351;SDS011;50680;52.626;-8.668;2023-03-01T07:19:26;13.32;;;7.88;;
64351;SDS011;50680;52.626;-8.668;2023-03-01T07:21:53;8.80;;;7.78;;
64351;SDS011;50680;52.626;-8.668;2023-03-01T07:24:21;11.82;;;7.55;;
64351;SDS011;50680;52.626;-8.668;2023-03-01T07:26:51;9.90;;;7.82;;
64351;SDS011;50680;52.626;-8.668;2023-03-01T07:29:19;10.23;;;7.95;;
64351;SDS011;50680;52.626;-8.668;2023-03-01T07:31:46;8.40;;;7.60;;
64351;SDS011;50680;52.626;-8.668;2023-03-01T07:34:13;10.88;;;7.80;;
64351;SDS011;50680;52.626;-8.668;2023-03-01T07:36:40;13.73;;;7.45;;
64351;SDS011;50680;52.626;-8.668;2023-03-01T07:39:09;9.15;;;7.50;;
64351;SDS011;50680;52.626;-8.668;2023-03-01T07:41:37;8.32;;;7.20;;
64351;SDS011;50680;52.626;-8.668;2023-03-01T07:44:04;9.48;;;7.40;;
64351;SDS011;50680;52.626;-8.668;2023-03-01T07:46:31;8.38;;;7.55;;
64351;SDS011;50680;52.626;-8.668;2023-03-01T07:48:58;11.43;;;7.38;;
64351;SDS011;50680;52.626;-8.668;2023-03-01T07:51:25;11.68;;;7.70;;
64351;SDS011;50680;52.626;-8.668;2023-03-01T07:53:52;10.70;;;8.23;;
64351;SDS011;50680;52.626;-8.668;2023-03-01T07:56:18;11.70;;;7.95;;
64351;SDS011;50680;52.626;-8.668;2023-03-01T07:58:46;10.27;;;7.30;;
64351;SDS011;50680;52.626;-8.668;2023-03-01T08:01:17;7.82;;;7.03;;
64351;SDS011;50680;52.626;-8.668;2023-03-01T08:03:45;9.30;;;7.95;;
64351;SDS011;50680;52.626;-8.668;2023-03-01T08:06:13;8.02;;;7.22;;
64351;SDS011;50680;52.626;-8.668;2023-03-01T08:08:41;8.35;;;7.18;;
64351;SDS011;50680;52.626;-8.668;2023-03-01T08:11:10;9.88;;;7.28;;
64351;SDS011;50680;52.626;-8.668;2023-03-01T08:13:38;12.00;;;7.60;;
64351;SDS011;50680;52.626;-8.668;2023-03-01T08:16:10;11.48;;;8.25;;
64351;SDS011;50680;52.626;-8.668;2023-03-01T08:18:38;10.27;;;7.97;;
64351;SDS011;50680;52.626;-8.668;2023-03-01T08:21:15;11.05;;;7.85;;
64351;SDS011;50680;52.626;-8.668;2023-03-01T08:23:43;10.68;;;7.95;;
64351;SDS011;50680;52.626;-8.668;2023-03-01T08:26:11;11.35;;;7.75;;
64351;SDS011;50680;52.626;-8.668;2023-03-01T08:28:43;10.55;;;7.22;;
64351;SDS011;50680;52.626;-8.668;2023-03-01T08:31:14;9.13;;;7.90;;
64351;SDS011;50680;52.626;-8.668;2023-03-01T08:33:47;8.52;;;7.68;;
64351;SDS011;50680;52.626;-8.668;2023-03-01T08:36:25;8.63;;;7.75;;
64351;SDS011;50680;52.626;-8.668;2023-03-01T08:38:57;7.55;;;6.68;;
64351;SDS011;50680;52.626;-8.668;2023-03-01T08:41:24;9.57;;;7.10;;
64351;SDS011;50680;52.626;-8.668;2023-03-01T08:43:51;11.20;;;7.78;;
64351;SDS011;50680;52.626;-8.668;2023-03-01T08:46:19;14.65;;;8.13;;
64351;SDS011;50680;52.626;-8.668;2023-03-01T08:48:46;10.32;;;7.07;;
64351;SDS011;50680;52.626;-8.668;2023-03-01T08:51:14;10.57;;;7.20;;
64351;SDS011;50680;52.626;-8.668;2023-03-01T08:53:45;13.85;;;6.35;;
64351;SDS011;50680;52.626;-8.668;2023-03-01T08:56:13;8.02;;;6.40;;
64351;SDS011;50680;52.626;-8.668;2023-03-01T08:58:43;9.43;;;6.82;;
64351;SDS011;50680;52.626;-8.668;2023-03-01T09:01:15;7.32;;;6.53;;
64351;SDS011;50680;52.626;-8.668;2023-03-01T09:03:44;8.50;;;7.25;;
64351;SDS011;50680;52.626;-8.668;2023-03-01T09:06:12;9.70;;;6.65;;
64351;SDS011;50680;52.626;-8.668;2023-03-01T09:08:49;13.20;;;6.82;;
64351;SDS011;50680;52.626;-8.668;2023-03-01T09:11:18;7.85;;;6.90;;
64351;SDS011;50680;52.626;-8.668;2023-03-01T09:13:47;7.85;;;6.70;;
64351;SDS011;50680;52.626;-8.668;2023-03-01T09:16:18;9.32;;;7.30;;
64351;SDS011;50680;52.626;-8.668;2023-03-01T09:18:48;8.35;;;6.45;;
64351;SDS011;50680;52.626;-8.668;2023-03-01T09:21:17;9.70;;;7.80;;
64351;SDS011;50680;52.626;-8.668;2023-03-01T09:24:02;7.30;;;6.43;;
64351;SDS011;50680;52.626;-8.668;2023-03-01T09:26:29;7.65;;;6.55;;
64351;SDS011;50680;52.626;-8.668;2023-03-01T09:28:59;7.72;;;6.22;;
64351;SDS011;50680;52.626;-8.668;2023-03-01T09:31:26;6.85;;;6.28;;
64351;SDS011;50680;52.626;-8.668;2023-03-01T09:33:53;8.20;;;6.35;;
64351;SDS011;50680;52.626;-8.668;2023-03-01T09:36:21;10.70;;;6.55;;
64351;SDS011;50680;52.626;-8.668;2023-03-01T09:38:51;6.07;;;5.57;;
64351;SDS011;50680;52.626;-8.668;2023-03-01T09:49:33;8.77;;;5.72;;
64351;SDS011;50680;52.626;-8.668;2023-03-01T09:52:15;5.97;;;5.40;;
64351;SDS011;50680;52.626;-8.668;2023-03-01T09:54:51;5.40;;;4.90;;
64351;SDS011;50680;52.626;-8.668;2023-03-01T09:58:13;7.18;;;5.95;;
64351;SDS011;50680;52.626;-8.668;2023-03-01T10:08:30;6.97;;;5.60;;
64351;SDS011;50680;52.626;-8.668;2023-03-01T10:11:03;7.78;;;5.47;;
64351;SDS011;50680;52.626;-8.668;2023-03-01T10:13:55;7.35;;;5.30;;
64351;SDS011;50680;52.626;-8.668;2023-03-01T10:16:34;6.30;;;5.13;;
64351;SDS011;50680;52.626;-8.668;2023-03-01T10:21:54;6.32;;;5.70;;
64351;SDS011;50680;52.626;-8.668;2023-03-01T10:24:50;7.07;;;6.05;;
64351;SDS011;50680;52.626;-8.668;2023-03-01T10:27:23;7.53;;;6.18;;
64351;SDS011;50680;52.626;-8.668;2023-03-01T10:29:57;6.55;;;5.93;;
64351;SDS011;50680;52.626;-8.668;2023-03-01T10:32:46;7.18;;;5.65;;
64351;SDS011;50680;52.626;-8.668;2023-03-01T10:35:22;8.80;;;6.20;;
64351;SDS011;50680;52.626;-8.668;2023-03-01T10:43:43;8.55;;;5.28;;
64351;SDS011;50680;52.626;-8.668;2023-03-01T10:46:29;8.20;;;5.18;;
64351;SDS011;50680;52.626;-8.668;2023-03-01T10:51:45;6.03;;;5.53;;
64351;SDS011;50680;52.626;-8.668;2023-03-01T10:54:15;6.53;;;5.22;;
64351;SDS011;50680;52.626;-8.668;2023-03-01T10:56:50;9.95;;;5.50;;
64351;SDS011;50680;52.626;-8.668;2023-03-01T11:04:57;9.25;;;5.57;;
64351;SDS011;50680;52.626;-8.668;2023-03-01T11:07:26;6.93;;;5.60;;
64351;SDS011;50680;52.626;-8.668;2023-03-01T11:09:53;8.48;;;4.80;;
64351;SDS011;50680;52.626;-8.668;2023-03-01T11:12:21;6.05;;;5.53;;
64351;SDS011;50680;52.626;-8.668;2023-03-01T11:14:49;5.45;;;4.93;;
64351;SDS011;50680;52.626;-8.668;2023-03-01T11:20:05;5.53;;;4.95;;
64351;SDS011;50680;52.626;-8.668;2023-03-01T11:22:47;5.22;;;4.82;;
64351;SDS011;50680;52.626;-8.668;2023-03-01T11:25:17;5.15;;;4.85;;
64351;SDS011;50680;52.626;-8.668;2023-03-01T11:27:49;8.85;;;4.72;;
64351;SDS011;50680;52.626;-8.668;2023-03-01T11:35:30;4.80;;;4.50;;
64351;SDS011;50680;52.626;-8.668;2023-03-01T11:43:26;4.50;;;4.20;;
64351;SDS011;50680;52.626;-8.668;2023-03-01T12:08:36;9.20;;;5.90;;
64351;SDS011;50680;52.626;-8.668;2023-03-01T12:16:56;5.90;;;5.20;;
64351;SDS011;50680;52.626;-8.668;2023-03-01T12:19:45;5.28;;;4.88;;
64351;SDS011;50680;52.626;-8.668;2023-03-01T12:22:35;5.55;;;5.03;;
64351;SDS011;50680;52.626;-8.668;2023-03-01T12:25:20;5.28;;;4.78;;
64351;SDS011;50680;52.626;-8.668;2023-03-01T12:31:47;4.72;;;4.32;;
64351;SDS011;50680;52.626;-8.668;2023-03-01T12:36:56;7.22;;;5.68;;
64351;SDS011;50680;52.626;-8.668;2023-03-01T12:50:52;6.88;;;4.93;;
64351;SDS011;50680;52.626;-8.668;2023-03-01T12:56:04;4.55;;;4.30;;
64351;SDS011;50680;52.626;-8.668;2023-03-01T12:58:39;5.13;;;4.63;;
64351;SDS011;50680;52.626;-8.668;2023-03-01T13:01:35;5.00;;;4.50;;
64351;SDS011;50680;52.626;-8.668;2023-03-01T13:04:21;3.97;;;3.78;;
64351;SDS011;50680;52.626;-8.668;2023-03-01T13:23:13;5.53;;;5.13;;
64351;SDS011;50680;52.626;-8.668;2023-03-01T13:29:11;5.90;;;5.47;;
64351;SDS011;50680;52.626;-8.668;2023-03-01T13:33:46;5.47;;;4.13;;
64351;SDS011;50680;52.626;-8.668;2023-03-01T13:36:56;5.20;;;4.90;;
64351;SDS011;50680;52.626;-8.668;2023-03-01T13:39:04;5.15;;;4.85;;
64351;SDS011;50680;52.626;-8.668;2023-03-01T13:41:50;4.63;;;4.38;;
64351;SDS011;50680;52.626;-8.668;2023-03-01T13:49:41;5.35;;;5.10;;
64351;SDS011;50680;52.626;-8.668;2023-03-01T13:57:44;6.05;;;5.75;;
64351;SDS011;50680;52.626;-8.668;2023-03-01T14:00:30;5.80;;;5.35;;
64351;SDS011;50680;52.626;-8.668;2023-03-01T14:03:13;6.22;;;5.78;;
64351;SDS011;50680;52.626;-8.668;2023-03-01T14:08:39;6.00;;;5.40;;
64351;SDS011;50680;52.626;-8.668;2023-03-01T14:19:37;6.95;;;6.43;;
64351;SDS011;50680;52.626;-8.668;2023-03-01T14:24:34;6.10;;;5.57;;
64351;SDS011;50680;52.626;-8.668;2023-03-01T14:27:11;5.90;;;5.38;;
64351;SDS011;50680;52.626;-8.668;2023-03-01T14:29:39;6.03;;;5.43;;
64351;SDS011;50680;52.626;-8.668;2023-03-01T14:34:48;6.63;;;5.95;;
64351;SDS011;50680;52.626;-8.668;2023-03-01T14:39:58;4.65;;;4.40;;
64351;SDS011;50680;52.626;-8.668;2023-03-01T14:42:36;4.63;;;4.43;;
64351;SDS011;50680;52.626;-8.668;2023-03-01T14:45:03;5.10;;;4.72;;
64351;SDS011;50680;52.626;-8.668;2023-03-01T14:47:33;5.20;;;4.90;;
64351;SDS011;50680;52.626;-8.668;2023-03-01T14:50:05;6.15;;;5.75;;
64351;SDS011;50680;52.626;-8.668;2023-03-01T14:52:38;5.13;;;4.60;;
64351;SDS011;50680;52.626;-8.668;2023-03-01T14:55:18;5.20;;;4.85;;
64351;SDS011;50680;52.626;-8.668;2023-03-01T14:57:48;4.68;;;4.13;;
64351;SDS011;50680;52.626;-8.668;2023-03-01T15:00:24;4.70;;;4.50;;
64351;SDS011;50680;52.626;-8.668;2023-03-01T15:02:54;4.85;;;4.65;;
64351;SDS011;50680;52.626;-8.668;2023-03-01T15:05:27;4.80;;;4.50;;
64351;SDS011;50680;52.626;-8.668;2023-03-01T15:08:00;6.43;;;5.25;;
64351;SDS011;50680;52.626;-8.668;2023-03-01T15:10:35;5.78;;;5.28;;
64351;SDS011;50680;52.626;-8.668;2023-03-01T15:13:13;4.55;;;4.35;;
64351;SDS011;50680;52.626;-8.668;2023-03-01T15:15:47;5.35;;;5.03;;
64351;SDS011;50680;52.626;-8.668;2023-03-01T15:18:21;4.63;;;4.38;;
64351;SDS011;50680;52.626;-8.668;2023-03-01T15:20:53;7.28;;;5.10;;
64351;SDS011;50680;52.626;-8.668;2023-03-01T15:23:22;6.43;;;4.88;;
64351;SDS011;50680;52.626;-8.668;2023-03-01T15:25:54;6.78;;;5.25;;
64351;SDS011;50680;52.626;-8.668;2023-03-01T15:28:48;5.55;;;5.25;;
64351;SDS011;50680;52.626;-8.668;2023-03-01T15:31:24;5.43;;;5.03;;
64351;SDS011;50680;52.626;-8.668;2023-03-01T15:34:08;4.57;;;4.28;;
64351;SDS011;50680;52.626;-8.668;2023-03-01T15:36:44;5.55;;;5.15;;
64351;SDS011;50680;52.626;-8.668;2023-03-01T15:39:25;6.00;;;5.32;;
64351;SDS011;50680;52.626;-8.668;2023-03-01T15:41:53;7.32;;;5.10;;
64351;SDS011;50680;52.626;-8.668;2023-03-01T15:44:25;5.90;;;5.32;;
64351;SDS011;50680;52.626;-8.668;2023-03-01T15:47:26;6.38;;;5.32;;
64351;SDS011;50680;52.626;-8.668;2023-03-01T15:49:53;5.65;;;5.10;;
64351;SDS011;50680;52.626;-8.668;2023-03-01T15:52:35;5.72;;;5.10;;
64351;SDS011;50680;52.626;-8.668;2023-03-01T15:55:14;9.25;;;7.38;;
64351;SDS011;50680;52.626;-8.668;2023-03-01T15:57:46;9.50;;;6.40;;
64351;SDS011;50680;52.626;-8.668;2023-03-01T16:00:17;6.75;;;5.80;;
64351;SDS011;50680;52.626;-8.668;2023-03-01T16:02:45;7.65;;;5.85;;
64351;SDS011;50680;52.626;-8.668;2023-03-01T16:05:19;10.63;;;6.93;;
64351;SDS011;50680;52.626;-8.668;2023-03-01T16:07:54;9.45;;;6.97;;
64351;SDS011;50680;52.626;-8.668;2023-03-01T16:10:21;9.73;;;6.38;;
64351;SDS011;50680;52.626;-8.668;2023-03-01T16:12:48;6.03;;;5.47;;
64351;SDS011;50680;52.626;-8.668;2023-03-01T16:15:19;6.47;;;5.95;;
64351;SDS011;50680;52.626;-8.668;2023-03-01T16:17:47;7.00;;;5.65;;
64351;SDS011;50680;52.626;-8.668;2023-03-01T16:20:15;6.20;;;5.60;;
64351;SDS011;50680;52.626;-8.668;2023-03-01T16:22:53;6.68;;;6.03;;
64351;SDS011;50680;52.626;-8.668;2023-03-01T16:25:20;5.20;;;4.82;;
64351;SDS011;50680;52.626;-8.668;2023-03-01T16:27:48;5.80;;;5.30;;
64351;SDS011;50680;52.626;-8.668;2023-03-01T16:30:17;9.68;;;5.85;;
64351;SDS011;50680;52.626;-8.668;2023-03-01T16:32:46;9.05;;;6.20;;
64351;SDS011;50680;52.626;-8.668;2023-03-01T16:35:14;6.45;;;5.70;;
64351;SDS011;50680;52.626;-8.668;2023-03-01T16:37:43;7.55;;;6.15;;
64351;SDS011;50680;52.626;-8.668;2023-03-01T16:40:20;8.07;;;5.95;;
64351;SDS011;50680;52.626;-8.668;2023-03-01T16:42:53;8.02;;;6.05;;
64351;SDS011;50680;52.626;-8.668;2023-03-01T16:45:27;8.10;;;7.30;;
64351;SDS011;50680;52.626;-8.668;2023-03-01T16:47:58;7.20;;;6.32;;
64351;SDS011;50680;52.626;-8.668;2023-03-01T16:50:25;6.75;;;5.22;;
64351;SDS011;50680;52.626;-8.668;2023-03-01T16:52:52;6.10;;;5.70;;
64351;SDS011;50680;52.626;-8.668;2023-03-01T16:55:19;6.32;;;5.78;;
64351;SDS011;50680;52.626;-8.668;2023-03-01T16:57:46;6.13;;;5.63;;
64351;SDS011;50680;52.626;-8.668;2023-03-01T17:00:13;5.80;;;5.28;;
64351;SDS011;50680;52.626;-8.668;2023-03-01T17:02:41;6.40;;;5.80;;
64351;SDS011;50680;52.626;-8.668;2023-03-01T17:05:11;8.02;;;6.63;;
64351;SDS011;50680;52.626;-8.668;2023-03-01T17:07:38;8.15;;;5.95;;
64351;SDS011;50680;52.626;-8.668;2023-03-01T17:10:06;8.00;;;6.30;;
64351;SDS011;50680;52.626;-8.668;2023-03-01T17:12:36;10.25;;;9.18;;
64351;SDS011;50680;52.626;-8.668;2023-03-01T17:15:03;5.80;;;5.30;;
64351;SDS011;50680;52.626;-8.668;2023-03-01T17:17:31;8.45;;;6.75;;
64351;SDS011;50680;52.626;-8.668;2023-03-01T17:19:58;8.23;;;6.70;;
64351;SDS011;50680;52.626;-8.668;2023-03-01T17:22:25;10.95;;;7.68;;
64351;SDS011;50680;52.626;-8.668;2023-03-01T17:24:52;11.13;;;6.45;;
64351;SDS011;50680;52.626;-8.668;2023-03-01T17:27:19;8.50;;;6.28;;
64351;SDS011;50680;52.626;-8.668;2023-03-01T17:29:45;11.45;;;6.60;;
64351;SDS011;50680;52.626;-8.668;2023-03-01T17:32:12;13.23;;;8.00;;